createdAt,value
2022-10-18T00:00:56.670Z,99633.34
2022-10-18T00:03:24.443Z,99640.16
2022-10-18T00:05:52.689Z,99647.34
2022-10-18T00:08:21.715Z,99641.47
2022-10-18T00:10:49.779Z,99648.47
2022-10-18T00:13:17.528Z,99652.66
2022-10-18T00:15:50.457Z,99653.47
2022-10-18T00:18:18.690Z,99648.38
2022-10-18T00:20:46.615Z,99651.63
2022-10-18T00:23:14.331Z,99649.31
2022-10-18T00:25:43.364Z,99653.94
2022-10-18T00:28:11.160Z,99651.56
2022-10-18T00:30:38.957Z,99653.81
2022-10-18T00:33:06.667Z,99650.78
2022-10-18T00:35:35.867Z,99654.22
2022-10-18T00:38:03.532Z,99646.53
2022-10-18T00:40:31.215Z,99642.16
2022-10-18T00:43:00.313Z,99646.03
2022-10-18T00:45:28.145Z,99645.19
2022-10-18T00:48:00.966Z,99644.38
2022-10-18T00:50:33.234Z,99649.91
2022-10-18T00:53:04.641Z,99670.63
2022-10-18T00:55:34.084Z,99657.59
2022-10-18T00:58:04.275Z,99660.75
2022-10-18T01:00:32.193Z,99656.84
2022-10-18T01:03:00.367Z,99648.31
2022-10-18T01:05:28.171Z,99661.28
2022-10-18T01:08:28.386Z,99657.97
2022-10-18T01:11:06.341Z,99646.13
2022-10-18T01:13:48.628Z,99647.34
2022-10-18T01:16:22.217Z,99636.94
2022-10-18T01:18:55.818Z,99640.72
2022-10-18T01:21:38.225Z,99643.50
2022-10-18T01:24:45.882Z,99644.69
2022-10-18T01:27:36.619Z,99644.50
2022-10-18T01:30:28.288Z,99640.16
2022-10-18T01:33:01.605Z,99640.69
2022-10-18T01:35:34.754Z,99648.50
2022-10-18T01:38:07.044Z,99644.03
2022-10-18T01:40:36.492Z,99649.53
2022-10-18T01:45:39.862Z,99646.72
2022-10-18T01:48:07.918Z,99643.84
2022-10-18T01:50:36.223Z,99645.22
2022-10-18T01:53:04.259Z,99649.03
2022-10-18T01:55:36.664Z,99638.81
2022-10-18T01:58:10.032Z,99643.00
2022-10-18T02:00:42.687Z,99639.81
2022-10-18T02:03:18.191Z,99643.00
2022-10-18T02:05:51.225Z,99646.72
2022-10-18T02:08:28.969Z,99635.38
2022-10-18T02:11:00.904Z,99639.78
2022-10-18T02:13:35.273Z,99644.34
2022-10-18T02:16:06.213Z,99632.44
2022-10-18T02:18:38.257Z,99633.47
2022-10-18T02:21:08.543Z,99623.25
2022-10-18T02:23:37.142Z,99617.84
2022-10-18T02:26:05.534Z,99615.03
2022-10-18T02:28:33.323Z,99614.72
2022-10-18T02:31:13.274Z,99617.75
2022-10-18T02:33:47.382Z,99619.78
2022-10-18T02:36:20.937Z,99609.63
2022-10-18T02:38:54.318Z,99608.16
2022-10-18T02:41:26.180Z,99613.13
2022-10-18T02:43:54.827Z,99609.78
2022-10-18T02:46:24.494Z,99601.84
2022-10-18T02:48:52.265Z,99608.72
2022-10-18T02:51:19.950Z,99615.06
2022-10-18T02:53:47.717Z,99610.44
2022-10-18T02:56:15.417Z,99609.84
2022-10-18T02:58:43.160Z,99613.72
2022-10-18T03:01:10.939Z,99595.38
2022-10-18T03:03:40.066Z,99601.34
2022-10-18T03:06:07.836Z,99594.88
2022-10-18T03:08:37.143Z,99604.50
2022-10-18T03:11:04.847Z,99606.88
2022-10-18T03:13:34.017Z,99602.38
2022-10-18T03:16:02.371Z,99607.31
2022-10-18T03:18:30.138Z,99604.22
2022-10-18T03:20:59.155Z,99608.94
2022-10-18T03:23:26.822Z,99602.72
2022-10-18T03:25:54.604Z,99604.22
2022-10-18T03:28:22.234Z,99598.34
2022-10-18T03:30:49.907Z,99608.84
2022-10-18T03:33:17.690Z,99599.94
2022-10-18T03:35:45.459Z,99593.41
2022-10-18T03:38:14.475Z,99595.66
2022-10-18T03:40:42.138Z,99598.88
2022-10-18T03:43:09.945Z,99600.41
2022-10-18T03:45:37.686Z,99598.69
2022-10-18T03:48:06.016Z,99590.03
2022-10-18T03:50:33.849Z,99587.31
2022-10-18T03:53:01.550Z,99589.22
2022-10-18T03:55:30.580Z,99593.25
2022-10-18T03:57:58.425Z,99597.75
2022-10-18T04:00:26.195Z,99598.03
2022-10-18T04:02:55.972Z,99603.72
2022-10-18T04:05:26.865Z,99612.94
2022-10-18T04:07:54.762Z,99613.09
2022-10-18T04:10:22.503Z,99613.13
2022-10-18T04:12:51.587Z,99619.47
2022-10-18T04:15:19.369Z,99608.16
2022-10-18T04:17:47.223Z,99605.22
2022-10-18T04:20:15.088Z,99619.22
2022-10-18T04:22:42.864Z,99615.81
2022-10-18T04:25:10.557Z,99614.22
2022-10-18T04:27:38.405Z,99621.59
2022-10-18T04:30:08.885Z,99621.75
2022-10-18T04:32:36.554Z,99611.13
2022-10-18T04:35:05.175Z,99620.75
2022-10-18T04:37:33.420Z,99622.69
2022-10-18T04:40:01.243Z,99631.41
2022-10-18T04:42:28.969Z,99627.59
2022-10-18T04:44:56.618Z,99622.19
2022-10-18T04:47:25.771Z,99628.97
2022-10-18T04:49:53.411Z,99633.97
2022-10-18T04:52:21.078Z,99633.09
2022-10-18T04:54:48.707Z,99625.22
2022-10-18T04:57:16.888Z,99617.97
2022-10-18T04:59:44.528Z,99627.44
2022-10-18T05:02:12.281Z,99625.75
2022-10-18T05:04:41.358Z,99617.81
2022-10-18T05:07:09.026Z,99624.72
2022-10-18T05:09:36.755Z,99634.22
2022-10-18T05:12:04.812Z,99638.66
2022-10-18T05:14:32.475Z,99631.44
2022-10-18T05:17:00.135Z,99623.38
2022-10-18T05:19:27.880Z,99622.59
2022-10-18T05:21:56.924Z,99628.66
2022-10-18T05:24:27.008Z,99636.31
2022-10-18T05:26:55.687Z,99628.22
2022-10-18T05:29:25.659Z,99618.66
2022-10-18T05:31:53.378Z,99617.88
2022-10-18T05:34:21.852Z,99624.19
2022-10-18T05:36:50.014Z,99625.34
2022-10-18T05:39:19.079Z,99626.66
2022-10-18T05:41:46.761Z,99617.56
2022-10-18T05:44:14.398Z,99617.69
2022-10-18T05:46:42.241Z,99615.75
2022-10-18T05:49:12.992Z,99617.13
2022-10-18T05:51:43.133Z,99620.81
2022-10-18T05:54:12.616Z,99616.50
2022-10-18T05:56:41.742Z,99619.66
2022-10-18T05:59:12.032Z,99625.84
2022-10-18T06:01:40.870Z,99618.34
2022-10-18T06:04:10.046Z,99627.13
2022-10-18T06:06:38.766Z,99620.38
2022-10-18T06:09:08.473Z,99626.63
2022-10-18T06:11:37.171Z,99615.63
2022-10-18T06:14:06.232Z,99623.09
2022-10-18T06:16:34.074Z,99625.72
2022-10-18T06:19:01.787Z,99633.28
2022-10-18T06:21:29.499Z,99626.38
2022-10-18T06:23:58.673Z,99631.63
2022-10-18T06:26:27.793Z,99627.56
2022-10-18T06:28:55.618Z,99631.03
2022-10-18T06:31:24.784Z,99632.13
2022-10-18T06:33:52.479Z,99625.84
2022-10-18T06:36:23.065Z,99620.66
2022-10-18T06:38:51.483Z,99630.06
2022-10-18T06:41:20.394Z,99626.34
2022-10-18T06:43:49.612Z,99638.59
2022-10-18T06:46:17.751Z,99639.53
2022-10-18T06:48:47.256Z,99635.44
2022-10-18T06:51:15.348Z,99635.47
2022-10-18T06:53:53.499Z,99636.06
2022-10-18T06:56:30.988Z,99632.69
2022-10-18T07:01:31.561Z,99637.06
2022-10-18T07:04:00.732Z,99636.19
2022-10-18T07:06:28.576Z,99642.78
2022-10-18T07:08:57.026Z,99652.47
2022-10-18T07:11:26.589Z,99664.66
2022-10-18T07:13:55.394Z,99659.28
2022-10-18T07:16:23.305Z,99659.50
2022-10-18T07:18:52.460Z,99668.72
2022-10-18T07:21:23.233Z,99668.47
2022-10-18T07:23:52.282Z,99670.91
2022-10-18T07:26:21.407Z,99677.41
2022-10-18T07:28:51.378Z,99671.72
2022-10-18T07:31:19.205Z,99679.25
2022-10-18T07:33:46.924Z,99664.19
2022-10-18T07:36:15.044Z,99674.25
2022-10-18T07:38:44.614Z,99674.50
2022-10-18T07:41:13.880Z,99670.34
2022-10-18T07:43:44.421Z,99670.88
2022-10-18T07:46:12.629Z,99673.78
2022-10-18T07:48:40.437Z,99678.88
2022-10-18T07:51:08.623Z,99679.03
2022-10-18T07:53:36.895Z,99684.03
2022-10-18T07:56:09.774Z,99682.16
2022-10-18T07:58:37.686Z,99672.22
2022-10-18T08:01:06.404Z,99676.94
2022-10-18T08:03:34.343Z,99689.38
2022-10-18T08:06:02.672Z,99683.69
2022-10-18T08:08:30.871Z,99684.44
2022-10-18T08:11:04.116Z,99693.06
2022-10-18T08:13:33.681Z,99713.38
2022-10-18T08:16:02.297Z,99708.63
2022-10-18T08:18:30.532Z,99713.91
2022-10-18T08:21:00.319Z,99715.44
2022-10-18T08:23:28.011Z,99720.78
2022-10-18T08:25:56.042Z,99712.50
2022-10-18T08:28:24.029Z,99722.06
2022-10-18T08:30:53.097Z,99726.91
2022-10-18T08:33:20.798Z,99721.50
2022-10-18T08:35:55.991Z,99718.41
2022-10-18T08:38:23.738Z,99718.75
2022-10-18T08:40:52.025Z,99710.50
2022-10-18T08:43:30.845Z,99712.50
2022-10-18T08:46:00.731Z,99737.94
2022-10-18T08:48:35.104Z,99729.34
2022-10-18T08:51:04.976Z,99743.94
2022-10-18T08:53:39.960Z,99746.94
2022-10-18T08:56:14.726Z,99762.34
2022-10-18T08:58:44.802Z,99762.69
2022-10-18T09:01:26.788Z,99766.84
2022-10-18T09:04:12.175Z,99768.38
2022-10-18T09:06:48.960Z,99756.72
2022-10-18T09:09:34.164Z,99753.69
2022-10-18T09:12:21.432Z,99761.09
2022-10-18T09:15:04.744Z,99747.09
2022-10-18T09:17:43.427Z,99735.13
2022-10-18T09:20:22.839Z,99741.28
2022-10-18T09:22:54.505Z,99740.31
2022-10-18T09:25:24.582Z,99744.31
2022-10-18T09:27:55.827Z,99741.69
2022-10-18T09:30:34.220Z,99741.69
2022-10-18T09:33:13.042Z,99742.44
2022-10-18T09:35:45.753Z,99739.81
2022-10-18T09:38:19.013Z,99740.22
2022-10-18T09:40:53.516Z,99749.72
2022-10-18T09:43:25.090Z,99736.41
2022-10-18T09:45:55.372Z,99739.91
2022-10-18T09:48:28.941Z,99735.19
2022-10-18T09:51:01.871Z,99737.41
2022-10-18T09:53:37.620Z,99742.63
2022-10-18T09:56:08.719Z,99732.78
2022-10-18T09:58:44.050Z,99741.34
2022-10-18T10:01:15.041Z,99735.50
2022-10-18T10:03:44.179Z,99729.94
2022-10-18T10:06:24.792Z,99732.03
2022-10-18T10:08:59.273Z,99739.63
2022-10-18T10:11:32.441Z,99734.69
2022-10-18T10:14:09.356Z,99736.72
2022-10-18T10:16:54.778Z,99731.97
2022-10-18T10:19:29.940Z,99736.84
2022-10-18T10:22:02.777Z,99734.84
2022-10-18T10:24:38.073Z,99734.09
2022-10-18T10:27:08.254Z,99724.69
2022-10-18T10:29:53.633Z,99723.00
2022-10-18T10:32:23.700Z,99722.34
2022-10-18T10:34:53.379Z,99722.75
2022-10-18T10:37:30.983Z,99712.75
2022-10-18T10:40:19.625Z,99705.69
2022-10-18T10:43:19.559Z,99707.75
2022-10-18T10:46:01.455Z,99727.94
2022-10-18T10:48:33.592Z,99717.38
2022-10-18T10:51:07.387Z,99723.16
2022-10-18T10:53:39.774Z,99724.88
2022-10-18T10:56:23.414Z,99726.34
2022-10-18T10:58:53.349Z,99730.50
2022-10-18T11:01:30.188Z,99726.41
2022-10-18T11:04:00.188Z,99728.72
2022-10-18T11:06:40.309Z,99724.72
2022-10-18T11:09:20.326Z,99722.13
2022-10-18T11:12:00.558Z,99721.72
2022-10-18T11:14:31.966Z,99723.50
2022-10-18T11:17:08.114Z,99720.03
2022-10-18T11:19:43.760Z,99720.59
2022-10-18T11:22:18.065Z,99716.69
2022-10-18T11:24:45.774Z,99715.56
2022-10-18T11:27:20.515Z,99712.56
2022-10-18T11:29:59.905Z,99727.22
2022-10-18T11:32:35.601Z,99713.50
2022-10-18T11:35:17.987Z,99713.56
2022-10-18T11:37:59.351Z,99718.22
2022-10-18T11:40:39.056Z,99726.09
2022-10-18T11:43:17.319Z,99718.59
2022-10-18T11:45:55.728Z,99722.69
2022-10-18T11:48:42.282Z,99715.59
2022-10-18T11:51:16.500Z,99721.22
2022-10-18T11:53:59.207Z,99720.81
2022-10-18T11:56:36.466Z,99718.47
2022-10-18T11:59:26.438Z,99718.63
2022-10-18T12:02:04.800Z,99712.38
2022-10-18T12:04:40.933Z,99718.38
2022-10-18T12:07:21.216Z,99719.94
2022-10-18T12:09:55.852Z,99713.66
2022-10-18T12:12:28.646Z,99720.66
2022-10-18T12:15:00.401Z,99715.50
2022-10-18T12:17:47.550Z,99716.50
2022-10-18T12:20:22.196Z,99712.19
2022-10-18T12:22:54.508Z,99710.25
2022-10-18T12:25:24.415Z,99702.84
2022-10-18T12:27:57.169Z,99701.88
2022-10-18T12:30:31.218Z,99709.13
2022-10-18T12:33:23.508Z,99698.06
2022-10-18T12:36:02.048Z,99698.06
2022-10-18T12:38:31.753Z,99703.69
2022-10-18T12:41:01.741Z,99690.31
2022-10-18T12:43:36.376Z,99695.03
2022-10-18T12:46:12.249Z,99692.69
2022-10-18T12:48:45.503Z,99696.03
2022-10-18T12:51:16.139Z,99693.03
2022-10-18T12:53:46.088Z,99695.06
2022-10-18T12:56:50.781Z,99696.44
2022-10-18T12:59:53.722Z,99697.50
2022-10-18T13:02:24.597Z,99692.22
2022-10-18T13:04:52.477Z,99691.22
2022-10-18T13:07:33.297Z,99700.03
2022-10-18T13:10:34.192Z,99688.06
2022-10-18T13:13:38.572Z,99686.28
2022-10-18T13:16:23.893Z,99690.28
2022-10-18T13:18:55.539Z,99685.50
2022-10-18T13:21:32.431Z,99681.91
2022-10-18T13:24:18.165Z,99683.16
2022-10-18T13:27:17.485Z,99685.53
2022-10-18T13:30:03.344Z,99682.09
2022-10-18T13:32:37.863Z,99687.66
2022-10-18T13:35:44.264Z,99691.25
2022-10-18T13:38:31.680Z,99686.09
